LGL8F ELLX-LFKC
Flight info
| Callsign | LGL8F |
|---|---|
| Flight time | 1h 35m |
| Altitude | 25000 |
| Route | GTQ DCT DEVDI DCT ODINA DCT EVANO DCT UNITA/N0317F190 M858 LIGUR |
| Aircraft | DH8D/M-SDE2E3FGRY/H |
Departure
| Time | 2026-05-04 12:52 |
|---|---|
| Airport | Luxembourg-Findel International Airport (ELLX) |
Arrival
| Time | 2026-05-04 14:27 |
|---|---|
| Airport | Calvi Sainte Catherine Airport (LFKC) |
| Time | Latitude | Longitude | Altitude | Speed | Heading |
|---|---|---|---|---|---|
| 2026-05-04 12:27 | 49.63255 | 6.21426 | 1234 ft | 0 kts | 240° |
| 2026-05-04 12:41 | 49.63256 | 6.21429 | 1233 ft | 1 kts | 241° |
| 2026-05-04 12:41 | 49.63260 | 6.21442 | 1233 ft | 1 kts | 240° |
| 2026-05-04 12:42 | 49.63270 | 6.21457 | 1233 ft | 2 kts | 201° |
| 2026-05-04 12:42 | 49.63285 | 6.21459 | 1233 ft | 2 kts | 164° |
| 2026-05-04 12:42 | 49.63293 | 6.21453 | 1233 ft | 0 kts | 148° |
| 2026-05-04 12:46 | 49.63278 | 6.21469 | 1233 ft | 5 kts | 143° |
| 2026-05-04 12:46 | 49.63245 | 6.21512 | 1232 ft | 7 kts | 141° |
| 2026-05-04 12:46 | 49.63193 | 6.21562 | 1231 ft | 10 kts | 150° |
| 2026-05-04 12:46 | 49.63133 | 6.21614 | 1230 ft | 10 kts | 151° |
| 2026-05-04 12:47 | 49.63092 | 6.21686 | 1229 ft | 9 kts | 81° |
| 2026-05-04 12:47 | 49.63131 | 6.21811 | 1227 ft | 14 kts | 62° |
| 2026-05-04 12:47 | 49.63173 | 6.21953 | 1225 ft | 15 kts | 65° |
| 2026-05-04 12:47 | 49.63217 | 6.22099 | 1224 ft | 16 kts | 62° |
| 2026-05-04 12:48 | 49.63264 | 6.22246 | 1222 ft | 14 kts | 64° |
| 2026-05-04 12:48 | 49.63312 | 6.22402 | 1221 ft | 17 kts | 64° |
| 2026-05-04 12:48 | 49.63366 | 6.22557 | 1221 ft | 16 kts | 62° |
| 2026-05-04 12:48 | 49.63420 | 6.22706 | 1221 ft | 15 kts | 59° |
| 2026-05-04 12:49 | 49.63473 | 6.22849 | 1221 ft | 15 kts | 60° |
| 2026-05-04 12:49 | 49.63524 | 6.22989 | 1220 ft | 14 kts | 60° |
| 2026-05-04 12:49 | 49.63570 | 6.23111 | 1220 ft | 12 kts | 59° |
| 2026-05-04 12:49 | 49.63611 | 6.23220 | 1220 ft | 10 kts | 60° |
| 2026-05-04 12:50 | 49.63660 | 6.23354 | 1219 ft | 15 kts | 62° |
| 2026-05-04 12:50 | 49.63633 | 6.23448 | 1219 ft | 8 kts | 150° |
| 2026-05-04 12:50 | 49.63578 | 6.23502 | 1219 ft | 11 kts | 143° |
| 2026-05-04 12:50 | 49.63517 | 6.23502 | 1219 ft | 8 kts | 233° |
| 2026-05-04 12:51 | 49.63483 | 6.23413 | 1219 ft | 16 kts | 240° |
| 2026-05-04 12:51 | 49.63325 | 6.22978 | 1220 ft | 88 kts | 239° |
| 2026-05-04 12:51 | 49.62904 | 6.21841 | 1246 ft | 146 kts | 239° |
| 2026-05-04 12:51 | 49.62389 | 6.20378 | 1627 ft | 165 kts | 241° |
| 2026-05-04 12:52 | 49.61821 | 6.18773 | 2198 ft | 174 kts | 240° |
| 2026-05-04 12:52 | 49.61221 | 6.17143 | 2826 ft | 179 kts | 237° |
| 2026-05-04 12:52 | 49.60602 | 6.15485 | 3480 ft | 184 kts | 238° |
| 2026-05-04 12:52 | 49.59932 | 6.13703 | 3802 ft | 206 kts | 237° |
| 2026-05-04 12:53 | 49.59185 | 6.11741 | 4227 ft | 220 kts | 234° |
| 2026-05-04 12:53 | 49.58071 | 6.10231 | 4871 ft | 213 kts | 197° |
| 2026-05-04 12:53 | 49.56684 | 6.10392 | 5661 ft | 203 kts | 154° |
| 2026-05-04 12:53 | 49.55673 | 6.11870 | 6287 ft | 206 kts | 134° |
| 2026-05-04 12:54 | 49.54593 | 6.13284 | 6906 ft | 203 kts | 151° |
| 2026-05-04 12:54 | 49.53397 | 6.14385 | 7504 ft | 204 kts | 152° |
| 2026-05-04 12:54 | 49.52193 | 6.15527 | 8125 ft | 206 kts | 151° |
| 2026-05-04 12:54 | 49.50985 | 6.16707 | 8703 ft | 208 kts | 150° |
| 2026-05-04 12:55 | 49.49770 | 6.17921 | 9307 ft | 210 kts | 150° |
| 2026-05-04 12:55 | 49.48553 | 6.19158 | 9871 ft | 212 kts | 150° |
| 2026-05-04 12:55 | 49.47325 | 6.20423 | 10424 ft | 215 kts | 150° |
| 2026-05-04 12:55 | 49.46098 | 6.21697 | 10963 ft | 217 kts | 150° |
| 2026-05-04 12:56 | 49.44838 | 6.23013 | 11449 ft | 220 kts | 150° |
| 2026-05-04 12:56 | 49.43578 | 6.24336 | 11980 ft | 223 kts | 150° |
| 2026-05-04 12:56 | 49.42286 | 6.25697 | 12466 ft | 226 kts | 150° |
| 2026-05-04 12:56 | 49.40986 | 6.27070 | 12944 ft | 228 kts | 149° |
| 2026-05-04 12:57 | 49.39689 | 6.28440 | 13395 ft | 231 kts | 149° |
| 2026-05-04 12:57 | 49.38364 | 6.29842 | 13830 ft | 233 kts | 149° |
| 2026-05-04 12:57 | 49.37030 | 6.31254 | 14275 ft | 235 kts | 149° |
| 2026-05-04 12:57 | 49.35681 | 6.32683 | 14723 ft | 236 kts | 150° |
| 2026-05-04 12:58 | 49.34319 | 6.34123 | 15125 ft | 239 kts | 149° |
| 2026-05-04 12:58 | 49.32957 | 6.35564 | 15540 ft | 240 kts | 149° |
| 2026-05-04 12:58 | 49.31587 | 6.37013 | 15935 ft | 242 kts | 150° |
| 2026-05-04 12:58 | 49.30203 | 6.38476 | 16326 ft | 244 kts | 149° |
| 2026-05-04 12:59 | 49.28811 | 6.39947 | 16702 ft | 245 kts | 149° |
| 2026-05-04 12:59 | 49.27405 | 6.41430 | 17044 ft | 248 kts | 150° |
| 2026-05-04 12:59 | 49.25979 | 6.42932 | 17349 ft | 252 kts | 150° |
| 2026-05-04 12:59 | 49.24531 | 6.44458 | 17644 ft | 255 kts | 150° |
| 2026-05-04 13:00 | 49.23053 | 6.46015 | 17942 ft | 258 kts | 150° |
| 2026-05-04 13:00 | 49.21563 | 6.47584 | 18245 ft | 261 kts | 150° |
| 2026-05-04 13:00 | 49.20068 | 6.49157 | 18550 ft | 263 kts | 150° |
| 2026-05-04 13:00 | 49.18563 | 6.50739 | 18851 ft | 265 kts | 149° |
| 2026-05-04 13:01 | 49.17036 | 6.52343 | 19151 ft | 267 kts | 150° |
| 2026-05-04 13:01 | 49.15506 | 6.53948 | 19452 ft | 269 kts | 150° |
| 2026-05-04 13:01 | 49.13963 | 6.55567 | 19754 ft | 271 kts | 150° |
| 2026-05-04 13:01 | 49.12413 | 6.57192 | 20056 ft | 272 kts | 150° |
| 2026-05-04 13:02 | 49.10865 | 6.58814 | 20355 ft | 271 kts | 150° |
| 2026-05-04 13:02 | 49.09308 | 6.60445 | 20655 ft | 271 kts | 150° |
| 2026-05-04 13:02 | 49.07763 | 6.62062 | 20956 ft | 269 kts | 150° |
| 2026-05-04 13:02 | 49.06232 | 6.63663 | 21262 ft | 268 kts | 150° |
| 2026-05-04 13:03 | 49.04694 | 6.65269 | 21559 ft | 265 kts | 151° |
| 2026-05-04 13:03 | 49.03181 | 6.66849 | 21855 ft | 263 kts | 151° |
| 2026-05-04 13:03 | 49.01671 | 6.68424 | 22155 ft | 259 kts | 152° |
| 2026-05-04 13:03 | 49.00225 | 6.69932 | 22445 ft | 256 kts | 152° |
| 2026-05-04 13:04 | 48.98751 | 6.71439 | 22743 ft | 250 kts | 155° |
| 2026-05-04 13:04 | 48.97213 | 6.72623 | 23039 ft | 242 kts | 161° |
| 2026-05-04 13:04 | 48.95707 | 6.73644 | 23329 ft | 237 kts | 162° |
| 2026-05-04 13:04 | 48.94227 | 6.74644 | 23626 ft | 231 kts | 162° |
| 2026-05-04 13:05 | 48.92780 | 6.75624 | 23899 ft | 226 kts | 162° |
| 2026-05-04 13:05 | 48.91316 | 6.76608 | 23982 ft | 236 kts | 162° |
| 2026-05-04 13:05 | 48.89814 | 6.77610 | 24562 ft | 236 kts | 162° |
| 2026-05-04 13:05 | 48.88280 | 6.78637 | 24881 ft | 247 kts | 162° |
| 2026-05-04 13:06 | 48.86696 | 6.79718 | 24966 ft | 249 kts | 161° |
| 2026-05-04 13:06 | 48.85114 | 6.80799 | 24989 ft | 253 kts | 161° |
| 2026-05-04 13:06 | 48.83503 | 6.81897 | 24995 ft | 257 kts | 161° |
| 2026-05-04 13:06 | 48.81859 | 6.83016 | 24995 ft | 261 kts | 161° |
| 2026-05-04 13:07 | 48.80200 | 6.84143 | 25000 ft | 265 kts | 161° |
| 2026-05-04 13:07 | 48.78504 | 6.85299 | 25002 ft | 269 kts | 161° |
| 2026-05-04 13:07 | 48.76774 | 6.86474 | 24999 ft | 273 kts | 161° |
| 2026-05-04 13:07 | 48.75040 | 6.87648 | 24998 ft | 277 kts | 161° |
| 2026-05-04 13:08 | 48.73277 | 6.88844 | 24995 ft | 280 kts | 161° |
| 2026-05-04 13:08 | 48.71500 | 6.90047 | 24997 ft | 283 kts | 161° |
| 2026-05-04 13:08 | 48.69676 | 6.91282 | 24996 ft | 286 kts | 161° |
| 2026-05-04 13:08 | 48.67855 | 6.92515 | 24998 ft | 289 kts | 160° |
| 2026-05-04 13:09 | 48.66007 | 6.93764 | 24997 ft | 292 kts | 160° |
| 2026-05-04 13:09 | 48.64160 | 6.95012 | 24996 ft | 295 kts | 160° |
| 2026-05-04 13:09 | 48.62274 | 6.96284 | 24999 ft | 297 kts | 160° |
| 2026-05-04 13:09 | 48.60392 | 6.97553 | 24995 ft | 299 kts | 160° |
| 2026-05-04 13:10 | 48.58498 | 6.98829 | 24996 ft | 300 kts | 160° |
| 2026-05-04 13:10 | 48.56597 | 7.00107 | 24994 ft | 301 kts | 160° |
| 2026-05-04 13:10 | 48.54681 | 7.01397 | 24994 ft | 302 kts | 160° |
| 2026-05-04 13:10 | 48.52766 | 7.02683 | 24993 ft | 303 kts | 160° |
| 2026-05-04 13:11 | 48.50834 | 7.03979 | 24996 ft | 304 kts | 160° |
| 2026-05-04 13:11 | 48.48904 | 7.05274 | 24997 ft | 305 kts | 160° |
| 2026-05-04 13:11 | 48.46962 | 7.06576 | 24998 ft | 305 kts | 160° |
| 2026-05-04 13:11 | 48.45044 | 7.07859 | 24993 ft | 306 kts | 160° |
| 2026-05-04 13:12 | 48.43094 | 7.09164 | 24991 ft | 307 kts | 160° |
| 2026-05-04 13:12 | 48.41126 | 7.10477 | 24988 ft | 307 kts | 160° |
| 2026-05-04 13:12 | 48.39201 | 7.11764 | 24984 ft | 308 kts | 160° |
| 2026-05-04 13:12 | 48.37225 | 7.13080 | 24992 ft | 308 kts | 160° |
| 2026-05-04 13:13 | 48.35284 | 7.14375 | 24989 ft | 308 kts | 160° |
| 2026-05-04 13:13 | 48.33323 | 7.15681 | 24988 ft | 308 kts | 160° |
| 2026-05-04 13:13 | 48.31362 | 7.16987 | 24985 ft | 309 kts | 160° |
| 2026-05-04 13:13 | 48.29396 | 7.18292 | 24988 ft | 309 kts | 160° |
| 2026-05-04 13:14 | 48.27446 | 7.19588 | 24990 ft | 309 kts | 160° |
| 2026-05-04 13:14 | 48.25472 | 7.20898 | 24994 ft | 309 kts | 160° |
| 2026-05-04 13:14 | 48.23518 | 7.22194 | 24995 ft | 309 kts | 160° |
| 2026-05-04 13:14 | 48.21556 | 7.23493 | 24994 ft | 310 kts | 160° |
| 2026-05-04 13:15 | 48.19571 | 7.24809 | 24995 ft | 310 kts | 160° |
| 2026-05-04 13:15 | 48.17621 | 7.26098 | 24997 ft | 310 kts | 160° |
| 2026-05-04 13:15 | 48.15653 | 7.27398 | 24999 ft | 309 kts | 160° |
| 2026-05-04 13:15 | 48.13680 | 7.28702 | 24995 ft | 309 kts | 160° |
| 2026-05-04 13:16 | 48.11708 | 7.30003 | 24997 ft | 309 kts | 160° |
| 2026-05-04 13:16 | 48.09745 | 7.31296 | 24998 ft | 309 kts | 160° |
| 2026-05-04 13:16 | 48.07788 | 7.32585 | 24995 ft | 309 kts | 160° |
| 2026-05-04 13:16 | 48.05816 | 7.33882 | 24994 ft | 309 kts | 160° |
| 2026-05-04 13:17 | 48.03859 | 7.35171 | 24988 ft | 309 kts | 160° |
| 2026-05-04 13:17 | 48.01898 | 7.36458 | 24981 ft | 310 kts | 160° |
| 2026-05-04 13:17 | 47.99915 | 7.37758 | 24979 ft | 310 kts | 160° |
| 2026-05-04 13:17 | 47.97950 | 7.39048 | 24978 ft | 310 kts | 160° |
| 2026-05-04 13:18 | 47.95978 | 7.40340 | 24975 ft | 311 kts | 160° |
| 2026-05-04 13:18 | 47.94010 | 7.41628 | 24971 ft | 311 kts | 160° |
| 2026-05-04 13:18 | 47.92036 | 7.42919 | 24975 ft | 311 kts | 160° |
| 2026-05-04 13:18 | 47.90040 | 7.44224 | 24974 ft | 311 kts | 160° |
| 2026-05-04 13:19 | 47.88077 | 7.45507 | 24972 ft | 311 kts | 160° |
| 2026-05-04 13:19 | 47.86092 | 7.46802 | 24970 ft | 312 kts | 160° |
| 2026-05-04 13:19 | 47.84094 | 7.48105 | 24964 ft | 312 kts | 160° |
| 2026-05-04 13:19 | 47.82128 | 7.49385 | 24972 ft | 312 kts | 160° |
| 2026-05-04 13:20 | 47.80139 | 7.50678 | 24965 ft | 312 kts | 160° |
| 2026-05-04 13:20 | 47.78162 | 7.51966 | 24970 ft | 312 kts | 160° |
| 2026-05-04 13:20 | 47.76175 | 7.53258 | 24971 ft | 312 kts | 160° |
| 2026-05-04 13:20 | 47.74196 | 7.54543 | 24974 ft | 311 kts | 160° |
| 2026-05-04 13:21 | 47.72227 | 7.55860 | 24981 ft | 312 kts | 158° |
| 2026-05-04 13:21 | 47.70271 | 7.57247 | 24982 ft | 312 kts | 158° |
| 2026-05-04 13:21 | 47.68297 | 7.58655 | 24983 ft | 312 kts | 158° |
| 2026-05-04 13:21 | 47.66353 | 7.60035 | 24988 ft | 311 kts | 158° |
| 2026-05-04 13:22 | 47.64390 | 7.61424 | 24988 ft | 311 kts | 158° |
| 2026-05-04 13:22 | 47.62437 | 7.62803 | 24986 ft | 311 kts | 158° |
| 2026-05-04 13:22 | 47.60487 | 7.64180 | 24988 ft | 312 kts | 158° |
| 2026-05-04 13:22 | 47.58515 | 7.65569 | 24988 ft | 312 kts | 159° |
| 2026-05-04 13:23 | 47.56565 | 7.66941 | 24993 ft | 312 kts | 159° |
| 2026-05-04 13:23 | 47.54615 | 7.68310 | 24990 ft | 312 kts | 159° |
| 2026-05-04 13:23 | 47.52651 | 7.69688 | 24988 ft | 312 kts | 159° |
| 2026-05-04 13:23 | 47.50708 | 7.71049 | 24987 ft | 313 kts | 159° |
| 2026-05-04 13:24 | 47.48732 | 7.72433 | 24989 ft | 313 kts | 159° |
| 2026-05-04 13:24 | 47.46758 | 7.73815 | 24987 ft | 313 kts | 159° |
| 2026-05-04 13:24 | 47.44788 | 7.75191 | 24986 ft | 313 kts | 159° |
| 2026-05-04 13:25 | 47.40875 | 7.77922 | 24989 ft | 313 kts | 159° |
| 2026-05-04 13:25 | 47.38918 | 7.79287 | 24989 ft | 313 kts | 159° |
| 2026-05-04 13:25 | 47.36932 | 7.80670 | 24985 ft | 313 kts | 159° |
| 2026-05-04 13:25 | 47.34980 | 7.82029 | 24987 ft | 312 kts | 159° |
| 2026-05-04 13:26 | 47.33030 | 7.83385 | 24988 ft | 312 kts | 159° |
| 2026-05-04 13:26 | 47.31059 | 7.84754 | 24989 ft | 312 kts | 159° |
| 2026-05-04 13:26 | 47.29104 | 7.86111 | 24989 ft | 312 kts | 159° |
| 2026-05-04 13:26 | 47.27142 | 7.87471 | 24988 ft | 313 kts | 159° |
| 2026-05-04 13:27 | 47.25169 | 7.88838 | 24987 ft | 314 kts | 159° |
| 2026-05-04 13:27 | 47.23199 | 7.90202 | 24985 ft | 314 kts | 159° |
| 2026-05-04 13:27 | 47.21229 | 7.91565 | 24988 ft | 314 kts | 159° |
| 2026-05-04 13:27 | 47.19255 | 7.92930 | 24993 ft | 314 kts | 159° |
| 2026-05-04 13:28 | 47.17271 | 7.94300 | 24993 ft | 314 kts | 159° |
| 2026-05-04 13:28 | 47.15302 | 7.95659 | 24992 ft | 313 kts | 159° |
| 2026-05-04 13:28 | 47.13337 | 7.97014 | 24997 ft | 313 kts | 159° |
| 2026-05-04 13:28 | 47.11368 | 7.98371 | 25001 ft | 314 kts | 159° |
| 2026-05-04 13:29 | 47.09387 | 7.99734 | 25004 ft | 314 kts | 159° |
| 2026-05-04 13:29 | 47.07428 | 8.01081 | 25005 ft | 314 kts | 159° |
| 2026-05-04 13:29 | 47.05429 | 8.02455 | 25001 ft | 314 kts | 159° |
| 2026-05-04 13:29 | 47.03473 | 8.03799 | 25005 ft | 314 kts | 159° |
| 2026-05-04 13:30 | 47.01483 | 8.05164 | 25008 ft | 314 kts | 159° |
| 2026-05-04 13:30 | 46.99529 | 8.06505 | 25012 ft | 314 kts | 159° |
| 2026-05-04 13:30 | 46.97546 | 8.07863 | 25014 ft | 314 kts | 159° |
| 2026-05-04 13:30 | 46.95555 | 8.09226 | 25015 ft | 314 kts | 159° |
| 2026-05-04 13:31 | 46.93597 | 8.10565 | 25016 ft | 314 kts | 159° |
| 2026-05-04 13:31 | 46.91610 | 8.11920 | 25023 ft | 314 kts | 159° |
| 2026-05-04 13:31 | 46.89664 | 8.13249 | 25028 ft | 314 kts | 159° |
| 2026-05-04 13:31 | 46.87680 | 8.14603 | 25031 ft | 314 kts | 159° |
| 2026-05-04 13:32 | 46.85691 | 8.15959 | 25037 ft | 314 kts | 159° |
| 2026-05-04 13:32 | 46.83727 | 8.17298 | 25046 ft | 314 kts | 159° |
| 2026-05-04 13:32 | 46.81755 | 8.18641 | 25036 ft | 314 kts | 159° |
| 2026-05-04 13:32 | 46.79783 | 8.19982 | 25049 ft | 313 kts | 159° |
| 2026-05-04 13:33 | 46.77801 | 8.21329 | 25067 ft | 313 kts | 159° |
| 2026-05-04 13:33 | 46.75829 | 8.22668 | 25079 ft | 313 kts | 159° |
| 2026-05-04 13:33 | 46.73872 | 8.23995 | 25097 ft | 313 kts | 159° |
| 2026-05-04 13:33 | 46.71876 | 8.25348 | 25096 ft | 314 kts | 159° |
| 2026-05-04 13:34 | 46.69900 | 8.26686 | 25092 ft | 314 kts | 159° |
| 2026-05-04 13:34 | 46.67933 | 8.28017 | 25093 ft | 315 kts | 159° |
| 2026-05-04 13:34 | 46.65935 | 8.29368 | 25086 ft | 315 kts | 159° |
| 2026-05-04 13:34 | 46.63959 | 8.30702 | 25089 ft | 315 kts | 159° |
| 2026-05-04 13:35 | 46.61954 | 8.32056 | 25081 ft | 316 kts | 159° |
| 2026-05-04 13:35 | 46.57988 | 8.34730 | 25088 ft | 316 kts | 159° |
| 2026-05-04 13:35 | 46.55993 | 8.36074 | 25094 ft | 316 kts | 159° |
| 2026-05-04 13:36 | 46.53992 | 8.37420 | 25087 ft | 317 kts | 159° |
| 2026-05-04 13:36 | 46.52011 | 8.38751 | 25079 ft | 317 kts | 159° |
| 2026-05-04 13:36 | 46.50006 | 8.40099 | 25082 ft | 317 kts | 159° |
| 2026-05-04 13:36 | 46.48006 | 8.41440 | 25086 ft | 317 kts | 159° |
| 2026-05-04 13:37 | 46.46002 | 8.42785 | 25091 ft | 317 kts | 159° |
| 2026-05-04 13:37 | 46.44011 | 8.44120 | 25089 ft | 317 kts | 158° |
| 2026-05-04 13:37 | 46.42023 | 8.45452 | 25094 ft | 317 kts | 159° |
| 2026-05-04 13:37 | 46.40003 | 8.46803 | 25097 ft | 317 kts | 159° |
| 2026-05-04 13:38 | 46.38014 | 8.48134 | 25104 ft | 317 kts | 158° |
| 2026-05-04 13:38 | 46.36017 | 8.49466 | 25106 ft | 317 kts | 159° |
| 2026-05-04 13:38 | 46.34021 | 8.50801 | 25097 ft | 317 kts | 158° |
| 2026-05-04 13:38 | 46.32016 | 8.52139 | 25099 ft | 316 kts | 158° |
| 2026-05-04 13:39 | 46.30033 | 8.53459 | 25123 ft | 315 kts | 159° |
| 2026-05-04 13:39 | 46.28053 | 8.54777 | 25122 ft | 314 kts | 159° |
| 2026-05-04 13:39 | 46.26064 | 8.56099 | 25112 ft | 315 kts | 159° |
| 2026-05-04 13:39 | 46.24092 | 8.57408 | 25120 ft | 315 kts | 159° |
| 2026-05-04 13:40 | 46.22100 | 8.58734 | 25132 ft | 315 kts | 158° |
| 2026-05-04 13:40 | 46.20101 | 8.60060 | 25134 ft | 314 kts | 159° |
| 2026-05-04 13:40 | 46.18121 | 8.61373 | 25127 ft | 315 kts | 159° |
| 2026-05-04 13:40 | 46.16141 | 8.62684 | 25125 ft | 315 kts | 158° |
| 2026-05-04 13:41 | 46.14153 | 8.64001 | 25118 ft | 315 kts | 159° |
| 2026-05-04 13:41 | 46.12159 | 8.65321 | 25103 ft | 316 kts | 159° |
| 2026-05-04 13:41 | 46.10195 | 8.66430 | 25080 ft | 312 kts | 169° |
| 2026-05-04 13:42 | 46.05939 | 8.67093 | 25118 ft | 309 kts | 178° |
| 2026-05-04 13:42 | 46.03780 | 8.67352 | 25115 ft | 309 kts | 178° |
| 2026-05-04 13:42 | 46.01648 | 8.67609 | 25096 ft | 310 kts | 178° |
| 2026-05-04 13:42 | 45.99497 | 8.67869 | 25085 ft | 311 kts | 178° |
| 2026-05-04 13:43 | 45.97354 | 8.68134 | 25091 ft | 311 kts | 178° |
| 2026-05-04 13:43 | 45.95197 | 8.68401 | 25098 ft | 311 kts | 178° |
| 2026-05-04 13:43 | 45.93034 | 8.68671 | 25099 ft | 312 kts | 178° |
| 2026-05-04 13:43 | 45.90887 | 8.68937 | 25096 ft | 312 kts | 178° |
| 2026-05-04 13:44 | 45.88707 | 8.69208 | 25094 ft | 311 kts | 178° |
| 2026-05-04 13:44 | 45.86560 | 8.69479 | 25109 ft | 311 kts | 178° |
| 2026-05-04 13:44 | 45.84413 | 8.69748 | 25102 ft | 312 kts | 178° |
| 2026-05-04 13:44 | 45.82267 | 8.70015 | 25092 ft | 312 kts | 178° |
| 2026-05-04 13:45 | 45.80099 | 8.70288 | 25099 ft | 312 kts | 178° |
| 2026-05-04 13:45 | 45.77929 | 8.70558 | 25099 ft | 312 kts | 178° |
| 2026-05-04 13:45 | 45.75760 | 8.70831 | 25098 ft | 313 kts | 178° |
| 2026-05-04 13:45 | 45.73589 | 8.71102 | 25103 ft | 312 kts | 178° |
| 2026-05-04 13:46 | 45.71419 | 8.71375 | 25096 ft | 313 kts | 178° |
| 2026-05-04 13:46 | 45.69250 | 8.71644 | 25093 ft | 313 kts | 178° |
| 2026-05-04 13:46 | 45.67094 | 8.71913 | 25095 ft | 313 kts | 178° |
| 2026-05-04 13:46 | 45.64916 | 8.72184 | 25094 ft | 314 kts | 178° |
| 2026-05-04 13:47 | 45.62738 | 8.72456 | 25092 ft | 314 kts | 178° |
| 2026-05-04 13:47 | 45.60571 | 8.72726 | 25092 ft | 314 kts | 178° |
| 2026-05-04 13:47 | 45.58411 | 8.72994 | 25096 ft | 315 kts | 178° |
| 2026-05-04 13:47 | 45.56237 | 8.73265 | 25093 ft | 315 kts | 178° |
| 2026-05-04 13:48 | 45.54051 | 8.73538 | 25091 ft | 315 kts | 178° |
| 2026-05-04 13:48 | 45.51873 | 8.73808 | 25090 ft | 315 kts | 178° |
| 2026-05-04 13:48 | 45.49681 | 8.74080 | 25086 ft | 315 kts | 178° |
| 2026-05-04 13:48 | 45.47509 | 8.74349 | 25083 ft | 315 kts | 178° |
| 2026-05-04 13:49 | 45.45322 | 8.74620 | 25084 ft | 315 kts | 178° |
| 2026-05-04 13:49 | 45.43129 | 8.74892 | 25084 ft | 315 kts | 178° |
| 2026-05-04 13:49 | 45.40960 | 8.75160 | 25085 ft | 315 kts | 178° |
| 2026-05-04 13:49 | 45.38760 | 8.75432 | 25085 ft | 315 kts | 178° |
| 2026-05-04 13:50 | 45.36600 | 8.75699 | 25085 ft | 316 kts | 178° |
| 2026-05-04 13:50 | 45.34397 | 8.75971 | 25083 ft | 316 kts | 178° |
| 2026-05-04 13:50 | 45.32202 | 8.76281 | 25080 ft | 316 kts | 176° |
| 2026-05-04 13:50 | 45.30021 | 8.76707 | 25073 ft | 317 kts | 175° |
| 2026-05-04 13:51 | 45.27845 | 8.77146 | 25072 ft | 317 kts | 175° |
| 2026-05-04 13:51 | 45.25671 | 8.77580 | 25072 ft | 317 kts | 175° |
| 2026-05-04 13:51 | 45.23500 | 8.78011 | 25068 ft | 318 kts | 175° |
| 2026-05-04 13:51 | 45.21304 | 8.78443 | 25068 ft | 318 kts | 175° |
| 2026-05-04 13:52 | 45.16912 | 8.79301 | 25062 ft | 318 kts | 175° |
| 2026-05-04 13:52 | 45.14744 | 8.79723 | 25061 ft | 318 kts | 175° |
| 2026-05-04 13:52 | 45.12555 | 8.80147 | 25060 ft | 318 kts | 175° |
| 2026-05-04 13:53 | 45.10351 | 8.80574 | 25058 ft | 318 kts | 175° |
| 2026-05-04 13:53 | 45.08183 | 8.80993 | 25059 ft | 318 kts | 175° |
| 2026-05-04 13:53 | 45.05977 | 8.81418 | 25059 ft | 317 kts | 175° |
| 2026-05-04 13:54 | 45.01614 | 8.82258 | 25057 ft | 317 kts | 175° |
| 2026-05-04 13:54 | 44.99414 | 8.82681 | 25059 ft | 317 kts | 175° |
| 2026-05-04 13:54 | 44.95045 | 8.83520 | 25060 ft | 318 kts | 175° |
| 2026-05-04 13:55 | 44.92881 | 8.83934 | 25060 ft | 318 kts | 175° |
| 2026-05-04 13:55 | 44.88509 | 8.84771 | 25068 ft | 318 kts | 175° |
| 2026-05-04 13:55 | 44.86298 | 8.85193 | 25066 ft | 318 kts | 175° |
| 2026-05-04 13:56 | 44.84105 | 8.85612 | 25067 ft | 318 kts | 175° |
| 2026-05-04 13:56 | 44.81916 | 8.86030 | 25068 ft | 318 kts | 175° |
| 2026-05-04 13:56 | 44.77528 | 8.86866 | 25070 ft | 319 kts | 175° |
| 2026-05-04 13:57 | 44.75308 | 8.87291 | 25073 ft | 319 kts | 175° |
| 2026-05-04 13:57 | 44.73111 | 8.87707 | 25074 ft | 319 kts | 175° |
| 2026-05-04 13:58 | 44.66505 | 8.88962 | 25077 ft | 321 kts | 175° |
| 2026-05-04 13:58 | 44.62091 | 8.89799 | 25080 ft | 321 kts | 175° |
| 2026-05-04 13:58 | 44.59865 | 8.90220 | 25083 ft | 322 kts | 175° |
| 2026-05-04 13:59 | 44.57642 | 8.90641 | 25088 ft | 322 kts | 175° |
| 2026-05-04 13:59 | 44.55415 | 8.91062 | 25089 ft | 322 kts | 176° |
| 2026-05-04 13:59 | 44.50982 | 8.91899 | 25087 ft | 323 kts | 176° |
| 2026-05-04 14:00 | 44.48758 | 8.92319 | 25089 ft | 323 kts | 176° |
| 2026-05-04 14:00 | 44.44307 | 8.93158 | 25090 ft | 323 kts | 176° |
| 2026-05-04 14:00 | 44.42096 | 8.93574 | 25090 ft | 324 kts | 176° |
| 2026-05-04 14:01 | 44.39857 | 8.93995 | 25089 ft | 324 kts | 176° |
| 2026-05-04 14:01 | 44.37628 | 8.94414 | 25089 ft | 325 kts | 175° |
| 2026-05-04 14:01 | 44.33148 | 8.95255 | 25086 ft | 325 kts | 175° |
| 2026-05-04 14:02 | 44.30884 | 8.95679 | 25085 ft | 326 kts | 176° |
| 2026-05-04 14:02 | 44.28654 | 8.96097 | 25080 ft | 326 kts | 175° |
| 2026-05-04 14:02 | 44.26413 | 8.96517 | 25077 ft | 327 kts | 176° |
| 2026-05-04 14:02 | 44.24161 | 8.96938 | 25075 ft | 327 kts | 176° |
| 2026-05-04 14:03 | 44.21898 | 8.97361 | 25075 ft | 327 kts | 176° |
| 2026-05-04 14:03 | 44.19654 | 8.97780 | 25074 ft | 327 kts | 176° |
| 2026-05-04 14:03 | 44.17381 | 8.98204 | 25075 ft | 328 kts | 176° |
| 2026-05-04 14:03 | 44.15139 | 8.98623 | 25075 ft | 328 kts | 176° |
| 2026-05-04 14:04 | 44.10627 | 8.99463 | 25075 ft | 328 kts | 176° |
| 2026-05-04 14:04 | 44.08370 | 8.99883 | 25074 ft | 328 kts | 176° |
| 2026-05-04 14:04 | 44.06092 | 9.00307 | 25072 ft | 328 kts | 176° |
| 2026-05-04 14:05 | 44.01585 | 9.01144 | 25069 ft | 329 kts | 175° |
| 2026-05-04 14:05 | 43.99318 | 9.01564 | 25069 ft | 329 kts | 176° |
| 2026-05-04 14:05 | 43.97054 | 9.01983 | 25068 ft | 329 kts | 176° |
| 2026-05-04 14:06 | 43.94754 | 9.02379 | 25064 ft | 328 kts | 179° |
| 2026-05-04 14:06 | 43.92484 | 9.02312 | 24916 ft | 330 kts | 188° |
| 2026-05-04 14:06 | 43.90169 | 9.02021 | 24513 ft | 336 kts | 188° |
| 2026-05-04 14:06 | 43.87903 | 9.01728 | 24066 ft | 338 kts | 188° |
| 2026-05-04 14:07 | 43.85559 | 9.01428 | 23588 ft | 342 kts | 188° |
| 2026-05-04 14:07 | 43.83187 | 9.01129 | 23101 ft | 343 kts | 187° |
| 2026-05-04 14:07 | 43.80820 | 9.00838 | 22615 ft | 339 kts | 187° |
| 2026-05-04 14:07 | 43.78474 | 9.00557 | 22091 ft | 337 kts | 187° |
| 2026-05-04 14:08 | 43.76156 | 9.00284 | 21605 ft | 334 kts | 187° |
| 2026-05-04 14:08 | 43.73873 | 9.00017 | 21136 ft | 331 kts | 187° |
| 2026-05-04 14:08 | 43.71598 | 8.99751 | 20673 ft | 328 kts | 187° |
| 2026-05-04 14:08 | 43.69321 | 8.99485 | 20210 ft | 326 kts | 187° |
| 2026-05-04 14:09 | 43.64786 | 8.98980 | 19293 ft | 330 kts | 187° |
| 2026-05-04 14:09 | 43.62484 | 8.98701 | 18817 ft | 332 kts | 187° |
| 2026-05-04 14:10 | 43.57875 | 8.98151 | 17871 ft | 335 kts | 186° |
| 2026-05-04 14:10 | 43.55568 | 8.97879 | 17404 ft | 335 kts | 186° |
| 2026-05-04 14:10 | 43.53229 | 8.97602 | 16923 ft | 336 kts | 186° |
| 2026-05-04 14:10 | 43.50924 | 8.97316 | 16453 ft | 335 kts | 187° |
| 2026-05-04 14:11 | 43.48622 | 8.97029 | 15980 ft | 334 kts | 187° |
| 2026-05-04 14:11 | 43.43983 | 8.96451 | 15035 ft | 333 kts | 187° |
| 2026-05-04 14:11 | 43.41692 | 8.96167 | 14559 ft | 332 kts | 186° |
| 2026-05-04 14:12 | 43.39416 | 8.95886 | 14089 ft | 330 kts | 187° |
| 2026-05-04 14:12 | 43.37143 | 8.95614 | 13770 ft | 320 kts | 186° |
| 2026-05-04 14:12 | 43.32791 | 8.95131 | 13260 ft | 308 kts | 186° |
| 2026-05-04 14:13 | 43.30671 | 8.94895 | 13019 ft | 306 kts | 186° |
| 2026-05-04 14:13 | 43.28576 | 8.94660 | 12776 ft | 305 kts | 186° |
| 2026-05-04 14:13 | 43.26444 | 8.94420 | 12527 ft | 304 kts | 186° |
| 2026-05-04 14:13 | 43.24361 | 8.94187 | 12281 ft | 303 kts | 186° |
| 2026-05-04 14:14 | 43.22279 | 8.93766 | 12016 ft | 301 kts | 197° |
| 2026-05-04 14:14 | 43.18407 | 8.91719 | 11554 ft | 298 kts | 202° |
| 2026-05-04 14:14 | 43.16462 | 8.90642 | 11306 ft | 298 kts | 202° |
| 2026-05-04 14:15 | 43.12628 | 8.88530 | 10819 ft | 297 kts | 202° |
| 2026-05-04 14:15 | 43.08815 | 8.86445 | 10338 ft | 297 kts | 202° |
| 2026-05-04 14:16 | 43.04973 | 8.84352 | 9857 ft | 296 kts | 201° |
| 2026-05-04 14:16 | 43.03069 | 8.83317 | 9612 ft | 295 kts | 201° |
| 2026-05-04 14:17 | 42.99266 | 8.81255 | 9139 ft | 295 kts | 201° |
| 2026-05-04 14:17 | 42.97353 | 8.80219 | 8890 ft | 294 kts | 202° |
| 2026-05-04 14:17 | 42.93522 | 8.79085 | 8426 ft | 267 kts | 180° |
| 2026-05-04 14:18 | 42.91730 | 8.79114 | 8210 ft | 251 kts | 180° |
| 2026-05-04 14:18 | 42.88505 | 8.79171 | 7828 ft | 219 kts | 180° |
| 2026-05-04 14:19 | 42.85685 | 8.79193 | 7501 ft | 192 kts | 180° |
| 2026-05-04 14:19 | 42.84267 | 8.79179 | 7374 ft | 215 kts | 181° |
| 2026-05-04 14:19 | 42.82700 | 8.79170 | 7196 ft | 231 kts | 180° |
| 2026-05-04 14:19 | 42.81072 | 8.79171 | 7001 ft | 238 kts | 180° |
| 2026-05-04 14:20 | 42.79417 | 8.79175 | 6794 ft | 233 kts | 180° |
| 2026-05-04 14:20 | 42.77857 | 8.79185 | 6599 ft | 218 kts | 180° |
| 2026-05-04 14:20 | 42.76365 | 8.79191 | 6491 ft | 206 kts | 180° |
| 2026-05-04 14:21 | 42.73611 | 8.79184 | 6630 ft | 195 kts | 181° |
| 2026-05-04 14:21 | 42.72260 | 8.79178 | 6717 ft | 191 kts | 181° |
| 2026-05-04 14:21 | 42.70958 | 8.79178 | 6753 ft | 179 kts | 180° |
| 2026-05-04 14:21 | 42.69704 | 8.79188 | 6196 ft | 186 kts | 180° |
| 2026-05-04 14:22 | 42.68391 | 8.79194 | 5511 ft | 199 kts | 180° |
| 2026-05-04 14:22 | 42.66985 | 8.79197 | 4865 ft | 208 kts | 180° |
| 2026-05-04 14:22 | 42.65517 | 8.79199 | 4238 ft | 216 kts | 180° |
| 2026-05-04 14:22 | 42.63990 | 8.79201 | 3605 ft | 223 kts | 180° |
| 2026-05-04 14:23 | 42.60818 | 8.79257 | 2468 ft | 230 kts | 179° |
| 2026-05-04 14:23 | 42.59245 | 8.79106 | 2147 ft | 220 kts | 192° |
| 2026-05-04 14:23 | 42.57825 | 8.78606 | 2037 ft | 200 kts | 193° |
| 2026-05-04 14:24 | 42.56544 | 8.78264 | 1987 ft | 174 kts | 192° |
| 2026-05-04 14:24 | 42.55400 | 8.77860 | 2000 ft | 167 kts | 194° |
| 2026-05-04 14:24 | 42.54305 | 8.77473 | 1877 ft | 157 kts | 194° |
| 2026-05-04 14:24 | 42.53275 | 8.77112 | 1720 ft | 151 kts | 194° |
| 2026-05-04 14:25 | 42.52256 | 8.76767 | 1710 ft | 150 kts | 189° |
| 2026-05-04 14:25 | 42.50265 | 8.76595 | 1641 ft | 132 kts | 169° |
| 2026-05-04 14:25 | 42.49572 | 8.77346 | 1512 ft | 133 kts | 111° |
| 2026-05-04 14:26 | 42.49678 | 8.78567 | 1227 ft | 141 kts | 52° |
| 2026-05-04 14:26 | 42.50485 | 8.79209 | 925 ft | 134 kts | 11° |
| 2026-05-04 14:26 | 42.51394 | 8.79305 | 517 ft | 129 kts | 359° |
| 2026-05-04 14:26 | 42.52275 | 8.79302 | 235 ft | 123 kts | 358° |
| 2026-05-04 14:27 | 42.52961 | 8.79300 | 175 ft | 65 kts | 360° |
| 2026-05-04 14:27 | 42.53275 | 8.79294 | 153 ft | 35 kts | 0° |
| 2026-05-04 14:27 | 42.53417 | 8.79296 | 144 ft | 11 kts | 356° |
| 2026-05-04 14:27 | 42.53448 | 8.79296 | 143 ft | 3 kts | 92° |
| 2026-05-04 14:28 | 42.53390 | 8.79291 | 146 ft | 17 kts | 184° |
| 2026-05-04 14:28 | 42.53233 | 8.79291 | 156 ft | 25 kts | 180° |
| 2026-05-04 14:28 | 42.53008 | 8.79291 | 171 ft | 33 kts | 178° |
| 2026-05-04 14:28 | 42.52799 | 8.79299 | 184 ft | 28 kts | 180° |
| 2026-05-04 14:29 | 42.52464 | 8.79300 | 203 ft | 13 kts | 182° |
| 2026-05-04 14:29 | 42.52435 | 8.79177 | 203 ft | 9 kts | 267° |
| 2026-05-04 14:30 | 42.52449 | 8.79125 | 202 ft | 5 kts | 300° |
| 2026-05-04 14:30 | 42.52464 | 8.79089 | 202 ft | 1 kts | 300° |
| 2026-05-04 14:30 | 42.52467 | 8.79082 | 201 ft | 0 kts | 300° |